Time;durP1;ratioP1;P1;durP2;ratioP2;P2;SDS_P1;SDS_P2;PMS_P1;PMS_P2;Temp;Humidity;BMP_temperature;BMP_pressure;BME280_temperature;BME280_humidity;BME280_pressure;Samples;Min_cycle;Max_cycle;Signal;HPM_P1;HPM_P2
2023/07/19 00:01:16;;;;;;;10.40;6.40;;;22.40;1.00;;;;;;5008176;28;20178;-76
2023/07/19 00:03:42;;;;;;;10.40;6.43;;;22.40;1.00;;;;;;5008182;28;20193;-76
2023/07/19 00:06:07;;;;;;;8.20;6.40;;;22.30;1.00;;;;;;5009577;28;20588;-77
2023/07/19 00:08:33;;;;;;;12.10;6.40;;;22.30;1.00;;;;;;5006841;28;20656;-76
2023/07/19 00:10:59;;;;;;;10.77;6.53;;;;;;;;;;5022816;28;20181;-76
2023/07/19 00:13:25;;;;;;;10.53;6.20;;;22.20;1.00;;;;;;5006890;28;20605;-76
2023/07/19 00:15:51;;;;;;;9.20;6.20;;;22.20;1.00;;;;;;5009408;28;20547;-78
2023/07/19 00:18:16;;;;;;;9.80;6.70;;;22.00;1.00;;;;;;5006175;28;20205;-76
2023/07/19 00:20:42;;;;;;;10.17;6.13;;;24.60;1.00;;;;;;5007800;28;20189;-76
2023/07/19 00:23:07;;;;;;;11.03;6.60;;;22.00;1.00;;;;;;5007095;28;20289;-75
2023/07/19 00:25:33;;;;;;;13.23;6.80;;;22.00;1.00;;;;;;5005835;28;20221;-75
2023/07/19 00:27:58;;;;;;;9.20;6.30;;;22.00;1.00;;;;;;5005899;28;20190;-77
2023/07/19 00:30:24;;;;;;;10.70;6.90;;;;;;;;;;5007672;28;20208;-76
2023/07/19 00:32:50;;;;;;;11.70;6.47;;;22.00;1.00;;;;;;5000998;28;20302;-75
2023/07/19 00:35:16;;;;;;;11.33;7.03;;;22.00;1.00;;;;;;5006424;28;20281;-76
2023/07/19 00:37:43;;;;;;;16.53;6.87;;;22.00;1.00;;;;;;5006847;28;20373;-76
2023/07/19 00:40:09;;;;;;;10.33;6.70;;;22.20;1.00;;;;;;5004948;28;20914;-75
2023/07/19 00:42:34;;;;;;;11.20;6.40;;;22.00;1.00;;;;;;5007172;28;20471;-76
2023/07/19 00:45:00;;;;;;;9.60;6.57;;;21.90;1.00;;;;;;5007176;28;20432;-76
2023/07/19 00:47:26;;;;;;;10.67;6.80;;;21.90;1.00;;;;;;5007870;28;20200;-78
2023/07/19 00:49:51;;;;;;;11.43;7.30;;;21.80;1.00;;;;;;5007572;28;20197;-78
2023/07/19 00:52:17;;;;;;;12.03;7.23;;;21.70;1.00;;;;;;5007593;28;20480;-76
2023/07/19 00:54:44;;;;;;;10.13;6.80;;;21.60;1.00;;;;;;5007999;28;20205;-77
2023/07/19 00:57:10;;;;;;;14.93;6.70;;;21.50;1.00;;;;;;5007738;28;20174;-77
2023/07/19 00:59:35;;;;;;;11.87;6.50;;;21.50;1.00;;;;;;5006819;28;20444;-78
2023/07/19 01:02:01;;;;;;;12.27;7.30;;;21.50;1.00;;;;;;5007436;28;20197;-77
2023/07/19 01:04:29;;;;;;;10.10;6.70;;;21.60;1.00;;;;;;5008198;28;20182;-75
2023/07/19 01:06:55;;;;;;;9.40;6.60;;;21.60;1.00;;;;;;5007115;28;20272;-75
2023/07/19 01:09:21;;;;;;;11.07;6.40;;;21.60;1.00;;;;;;5007066;28;20452;-77
2023/07/19 01:11:46;;;;;;;9.77;6.50;;;21.60;1.00;;;;;;5006611;28;20471;-76
2023/07/19 01:14:12;;;;;;;12.17;6.60;;;21.60;1.00;;;;;;5006961;28;20186;-79
2023/07/19 01:16:38;;;;;;;10.53;7.60;;;21.70;1.00;;;;;;5004983;28;20642;-76
2023/07/19 01:19:04;;;;;;;12.80;6.73;;;21.40;1.00;;;;;;5006758;28;20178;-77
2023/07/19 01:21:29;;;;;;;11.33;7.00;;;21.30;1.00;;;;;;5006479;28;20182;-77
2023/07/19 01:23:55;;;;;;;8.87;6.50;;;21.20;1.00;;;;;;5005483;28;20220;-78
2023/07/19 01:26:21;;;;;;;13.27;7.50;;;21.20;1.00;;;;;;5008971;28;20633;-76
2023/07/19 01:28:46;;;;;;;10.97;6.90;;;21.10;1.00;;;;;;5010475;28;20189;-76
2023/07/19 01:31:16;;;;;;;9.47;7.13;;;21.00;1.00;;;;;;5008813;28;20256;-76
2023/07/19 01:33:42;;;;;;;12.87;6.83;;;21.00;1.00;;;;;;5009514;28;20228;-76
2023/07/19 01:36:08;;;;;;;13.83;7.40;;;20.90;1.00;;;;;;5010069;28;20444;-78
2023/07/19 01:38:34;;;;;;;19.33;7.47;;;20.80;1.00;;;;;;5009496;28;20177;-76
2023/07/19 01:41:01;;;;;;;15.17;7.07;;;20.70;1.00;;;;;;5013279;28;20198;-79
2023/07/19 01:43:26;;;;;;;13.97;7.23;;;20.60;1.00;;;;;;5009255;28;20508;-77
2023/07/19 01:45:52;;;;;;;12.63;7.40;;;20.60;1.00;;;;;;5008856;28;20441;-76
2023/07/19 01:48:18;;;;;;;12.03;7.07;;;20.60;1.00;;;;;;5009001;28;20353;-76
2023/07/19 01:50:47;;;;;;;10.57;7.00;;;20.40;1.00;;;;;;5009195;28;20188;-76
2023/07/19 01:53:13;;;;;;;8.37;6.53;;;20.40;1.00;;;;;;5011120;28;20472;-76
2023/07/19 01:55:40;;;;;;;10.47;7.10;;;20.40;1.00;;;;;;5009333;28;20433;-76
2023/07/19 01:58:05;;;;;;;10.53;7.10;;;20.40;1.00;;;;;;5008282;28;20444;-75
2023/07/19 02:00:31;;;;;;;12.20;7.50;;;20.40;1.00;;;;;;5010955;28;20800;-76
2023/07/19 02:02:56;;;;;;;11.13;7.30;;;20.30;1.00;;;;;;5010269;28;20210;-76
2023/07/19 02:05:22;;;;;;;9.90;7.27;;;20.20;1.00;;;;;;5009275;28;20182;-77
2023/07/19 02:07:48;;;;;;;10.90;6.63;;;;;;;;;;5009855;28;20190;-76
2023/07/19 02:10:14;;;;;;;10.20;7.17;;;20.20;1.00;;;;;;5008581;28;20186;-76
2023/07/19 02:12:39;;;;;;;10.47;7.07;;;20.20;1.00;;;;;;5009802;28;20483;-77
2023/07/19 02:15:05;;;;;;;11.07;7.53;;;20.20;1.00;;;;;;5008919;28;20569;-79
2023/07/19 02:17:31;;;;;;;13.50;7.03;;;20.10;1.00;;;;;;5009190;28;20186;-76
2023/07/19 02:19:56;;;;;;;10.33;7.03;;;20.80;1.00;;;;;;5010519;28;20433;-76
2023/07/19 02:22:23;;;;;;;11.07;6.80;;;20.10;1.00;;;;;;5009157;28;20292;-78
2023/07/19 02:24:48;;;;;;;12.90;7.37;;;20.00;1.00;;;;;;5009257;28;20536;-77
2023/07/19 02:27:14;;;;;;;16.07;7.20;;;20.00;1.00;;;;;;5005797;28;20537;-76
2023/07/19 02:29:39;;;;;;;10.93;7.10;;;20.00;1.00;;;;;;5007460;28;20216;-77
2023/07/19 02:32:05;;;;;;;14.97;7.43;;;20.10;1.00;;;;;;5006664;28;20380;-76
2023/07/19 02:34:31;;;;;;;8.77;6.90;;;20.10;1.00;;;;;;5008668;28;20186;-77
2023/07/19 02:36:57;;;;;;;20.53;7.50;;;20.00;1.00;;;;;;5006756;28;20208;-76
2023/07/19 02:39:26;;;;;;;14.00;7.70;;;20.10;1.00;;;;;;5008280;28;20453;-77
2023/07/19 02:41:52;;;;;;;13.00;7.30;;;20.10;1.00;;;;;;5006937;28;20634;-76
2023/07/19 02:44:17;;;;;;;8.27;6.50;;;20.00;1.00;;;;;;5008848;28;20533;-77
2023/07/19 02:46:43;;;;;;;13.40;7.63;;;19.90;1.00;;;;;;5008194;28;20549;-76
2023/07/19 02:49:08;;;;;;;10.30;6.97;;;19.90;1.00;;;;;;5007153;28;20190;-75
2023/07/19 02:51:34;;;;;;;13.67;7.40;;;19.80;1.00;;;;;;5009544;28;20730;-76
2023/07/19 02:53:59;;;;;;;12.77;7.60;;;19.80;1.00;;;;;;5008976;28;20174;-76
2023/07/19 02:56:25;;;;;;;11.40;7.43;;;19.80;1.00;;;;;;5006648;28;20245;-76
2023/07/19 02:58:50;;;;;;;12.27;7.27;;;19.80;1.00;;;;;;5009828;28;20189;-75
2023/07/19 03:01:16;;;;;;;10.77;6.77;;;19.80;1.00;;;;;;5007768;28;20183;-76
2023/07/19 03:03:42;;;;;;;10.90;7.50;;;;;;;;;;5008959;28;20214;-78
2023/07/19 03:06:10;;;;;;;16.80;7.60;;;19.80;1.00;;;;;;5007300;28;20179;-75
2023/07/19 03:08:36;;;;;;;13.23;7.30;;;19.80;1.00;;;;;;5008789;28;20214;-76
2023/07/19 03:11:02;;;;;;;9.93;6.63;;;19.80;1.00;;;;;;5007963;28;20444;-76
2023/07/19 03:13:27;;;;;;;11.23;7.27;;;19.80;1.00;;;;;;5007088;28;20468;-76
2023/07/19 03:15:53;;;;;;;12.33;7.20;;;19.90;1.00;;;;;;5007875;28;20259;-76
2023/07/19 03:18:18;;;;;;;10.27;7.27;;;19.90;1.00;;;;;;5007099;28;20214;-77
2023/07/19 03:20:44;;;;;;;12.90;7.40;;;19.80;1.00;;;;;;5009579;28;20557;-77
2023/07/19 03:23:09;;;;;;;14.43;8.20;;;19.60;1.00;;;;;;5008953;28;20210;-75
2023/07/19 03:25:35;;;;;;;11.60;7.07;;;19.60;1.00;;;;;;5008101;28;20186;-76
2023/07/19 03:28:00;;;;;;;12.83;8.00;;;19.60;1.00;;;;;;5005851;28;20529;-76
2023/07/19 03:30:26;;;;;;;14.13;7.80;;;19.70;1.00;;;;;;5007072;28;20264;-76
2023/07/19 03:32:52;;;;;;;12.07;7.40;;;19.80;1.00;;;;;;5005518;28;20216;-75
2023/07/19 03:35:18;;;;;;;12.87;7.83;;;19.80;1.00;;;;;;5007367;28;20242;-76
2023/07/19 03:37:44;;;;;;;16.20;8.40;;;19.80;1.00;;;;;;5021883;28;20247;-77
2023/07/19 03:40:14;;;;;;;11.23;7.30;;;19.70;1.00;;;;;;5008394;28;20641;-76
2023/07/19 03:42:40;;;;;;;18.03;8.70;;;;;;;;;;5007928;28;20758;-76
2023/07/19 03:45:07;;;;;;;12.07;8.03;;;19.70;1.00;;;;;;5006084;28;20441;-77
2023/07/19 03:47:33;;;;;;;11.03;7.13;;;;;;;;;;5007766;28;20445;-76
2023/07/19 03:49:59;;;;;;;9.90;7.20;;;19.70;1.00;;;;;;5006326;28;20946;-76
2023/07/19 03:52:24;;;;;;;12.73;7.70;;;19.70;1.00;;;;;;5008172;28;20504;-75
2023/07/19 03:54:53;;;;;;;16.83;8.43;;;19.60;1.00;;;;;;5007413;28;20178;-77
2023/07/19 03:57:19;;;;;;;10.80;7.40;;;;;;;;;;5006616;28;20197;-76
2023/07/19 03:59:45;;;;;;;11.87;7.67;;;19.60;1.00;;;;;;5008395;28;20936;-76
2023/07/19 04:02:11;;;;;;;11.10;7.27;;;19.60;1.00;;;;;;5008335;28;20463;-76
2023/07/19 04:04:36;;;;;;;14.37;8.20;;;19.60;1.00;;;;;;5006201;28;20189;-76
2023/07/19 04:07:02;;;;;;;14.20;8.63;;;19.60;1.00;;;;;;5006334;28;20182;-77
2023/07/19 04:09:28;;;;;;;10.90;7.53;;;19.60;1.00;;;;;;5007651;28;20194;-76
2023/07/19 04:11:53;;;;;;;13.30;7.90;;;19.60;1.00;;;;;;5006514;28;20217;-76
2023/07/19 04:14:19;;;;;;;14.77;7.90;;;19.70;1.00;;;;;;5007742;28;20182;-76
2023/07/19 04:16:45;;;;;;;14.13;7.33;;;19.70;1.00;;;;;;5009577;28;20237;-76
2023/07/19 04:19:11;;;;;;;13.80;8.00;;;19.70;1.00;;;;;;5008346;28;20194;-76
2023/07/19 04:21:36;;;;;;;9.60;7.20;;;19.80;1.00;;;;;;5008842;28;20526;-76
2023/07/19 04:24:02;;;;;;;10.40;7.33;;;19.80;1.00;;;;;;5007866;28;20190;-76
2023/07/19 04:26:27;;;;;;;13.60;7.33;;;19.90;1.00;;;;;;5006674;28;20218;-79
2023/07/19 04:28:53;;;;;;;12.10;7.87;;;19.80;1.00;;;;;;5008934;28;20178;-76
2023/07/19 04:31:19;;;;;;;16.10;7.50;;;19.90;1.00;;;;;;5006939;28;20190;-75
2023/07/19 04:33:44;;;;;;;11.20;7.73;;;19.90;1.00;;;;;;5007455;28;20521;-76
2023/07/19 04:36:15;;;;;;;10.90;7.67;;;20.00;1.00;;;;;;5006448;28;20444;-76
2023/07/19 04:38:41;;;;;;;11.73;7.40;;;20.10;1.00;;;;;;5006776;28;20254;-76
2023/07/19 04:41:08;;;;;;;15.80;7.63;;;20.10;1.00;;;;;;5007456;28;20429;-77
2023/07/19 04:43:33;;;;;;;16.30;8.00;;;20.30;1.00;;;;;;5006876;28;21026;-76
2023/07/19 04:45:59;;;;;;;11.47;7.30;;;20.30;1.00;;;;;;5008276;28;20475;-76
2023/07/19 04:48:25;;;;;;;12.13;7.77;;;20.40;1.00;;;;;;5007256;28;20552;-76
2023/07/19 04:50:55;;;;;;;10.73;7.43;;;20.50;1.00;;;;;;5007225;28;20197;-76
2023/07/19 04:53:21;;;;;;;13.43;7.90;;;20.50;1.00;;;;;;5005875;28;20320;-78
2023/07/19 04:55:49;;;;;;;13.43;7.50;;;20.50;1.00;;;;;;5008664;28;20531;-76
2023/07/19 04:58:15;;;;;;;14.43;8.27;;;20.50;1.00;;;;;;5006075;28;20814;-76
2023/07/19 05:00:40;;;;;;;15.40;7.60;;;20.60;1.00;;;;;;5006947;28;20440;-76
2023/07/19 05:03:06;;;;;;;12.80;8.17;;;20.60;1.00;;;;;;5011760;28;20212;-78
2023/07/19 05:05:31;;;;;;;11.10;7.60;;;20.70;1.00;;;;;;5010407;28;20197;-79
2023/07/19 05:07:58;;;;;;;10.80;7.70;;;20.70;1.00;;;;;;5008390;28;20185;-76
2023/07/19 05:10:24;;;;;;;11.47;7.57;;;20.70;1.00;;;;;;5009441;28;20197;-76
2023/07/19 05:12:49;;;;;;;17.63;8.17;;;20.80;1.00;;;;;;5010101;28;20472;-77
2023/07/19 05:15:15;;;;;;;10.33;7.30;;;20.90;1.00;;;;;;5011333;28;20178;-76
2023/07/19 05:17:40;;;;;;;10.40;7.47;;;20.90;1.00;;;;;;5011292;28;20743;-79
2023/07/19 05:20:07;;;;;;;12.67;7.10;;;20.90;1.00;;;;;;5007506;28;20553;-77
2023/07/19 05:22:33;;;;;;;14.03;7.97;;;21.00;1.00;;;;;;5008317;28;20222;-76
2023/07/19 05:24:58;;;;;;;13.90;8.27;;;21.00;1.00;;;;;;5011076;28;20439;-79
2023/07/19 05:27:24;;;;;;;15.40;7.90;;;21.00;1.00;;;;;;5011074;28;20202;-76
2023/07/19 05:29:49;;;;;;;13.50;8.40;;;21.00;1.00;;;;;;5011127;28;20190;-76
2023/07/19 05:32:15;;;;;;;15.10;8.27;;;21.10;1.00;;;;;;5008724;28;20217;-77
2023/07/19 05:34:41;;;;;;;10.50;7.53;;;21.00;1.00;;;;;;5009408;28;20548;-77
2023/07/19 05:37:07;;;;;;;10.87;7.57;;;21.10;1.00;;;;;;5009569;28;20647;-76
2023/07/19 05:39:34;;;;;;;18.03;8.53;;;21.20;1.00;;;;;;5006837;28;20520;-76
2023/07/19 05:42:00;;;;;;;11.60;7.70;;;21.10;1.00;;;;;;5009667;28;20923;-76
2023/07/19 05:44:26;;;;;;;12.17;7.87;;;21.10;1.00;;;;;;5010836;28;20547;-76
2023/07/19 05:46:52;;;;;;;13.47;8.93;;;23.00;1.00;;;;;;5010574;28;20997;-76
2023/07/19 05:49:18;;;;;;;13.67;6.90;;;21.60;1.00;;;;;;5010327;28;20178;-76
2023/07/19 05:51:44;;;;;;;11.73;7.63;;;21.30;1.00;;;;;;5009267;28;20496;-79
2023/07/19 05:54:10;;;;;;;15.40;7.83;;;21.50;1.00;;;;;;5010145;28;20178;-76
2023/07/19 05:56:39;;;;;;;12.20;8.30;;;21.50;1.00;;;;;;5008365;28;20182;-77
2023/07/19 05:59:04;;;;;;;11.57;8.00;;;21.60;1.00;;;;;;5006227;28;20788;-76
2023/07/19 06:01:30;;;;;;;20.20;8.47;;;;;;;;;;5008543;28;20447;-77
2023/07/19 06:03:56;;;;;;;14.13;8.30;;;21.70;1.00;;;;;;5022899;28;20652;-79
2023/07/19 06:06:21;;;;;;;19.07;7.47;;;21.70;1.00;;;;;;5010750;28;20443;-76
2023/07/19 06:08:47;;;;;;;10.67;8.20;;;21.70;1.00;;;;;;5007703;28;20179;-76
2023/07/19 06:11:12;;;;;;;11.37;7.63;;;21.80;1.00;;;;;;5010512;28;20182;-76
2023/07/19 06:13:38;;;;;;;12.03;7.90;;;21.70;1.00;;;;;;5010266;28;20221;-76
2023/07/19 06:16:04;;;;;;;11.63;7.70;;;21.90;1.00;;;;;;5012040;28;20209;-76
2023/07/19 06:18:29;;;;;;;15.50;8.43;;;22.00;1.00;;;;;;5011411;28;20552;-76
2023/07/19 06:20:55;;;;;;;12.87;7.77;;;;;;;;;;5008914;28;20227;-77
2023/07/19 06:23:21;;;;;;;13.83;7.40;;;22.10;1.00;;;;;;5013000;28;20240;-77
2023/07/19 06:25:48;;;;;;;14.40;8.60;;;22.30;1.00;;;;;;5011041;28;20269;-75
2023/07/19 06:28:14;;;;;;;13.33;8.33;;;22.30;1.00;;;;;;5011832;28;20680;-76
2023/07/19 06:30:40;;;;;;;15.20;9.70;;;22.40;1.00;;;;;;5010087;28;20433;-76
2023/07/19 06:33:06;;;;;;;12.63;7.60;;;22.40;1.00;;;;;;5014089;28;20328;-76
2023/07/19 06:35:33;;;;;;;15.43;7.80;;;22.50;1.00;;;;;;5012263;28;20433;-76
2023/07/19 06:37:59;;;;;;;10.90;7.33;;;;;;;;;;5012579;28;20177;-76
2023/07/19 06:40:26;;;;;;;13.30;8.23;;;22.60;1.00;;;;;;5014497;28;20437;-76
2023/07/19 06:42:52;;;;;;;10.50;7.50;;;22.70;1.00;;;;;;5014793;28;20492;-78
2023/07/19 06:45:18;;;;;;;14.20;7.60;;;22.80;1.00;;;;;;5009251;28;20796;-73
2023/07/19 06:47:44;;;;;;;11.87;7.73;;;22.80;1.00;;;;;;5008243;28;20470;-76
2023/07/19 06:50:10;;;;;;;14.27;8.20;;;22.90;1.00;;;;;;4997153;28;20424;-77
2023/07/19 06:52:35;;;;;;;11.27;7.90;;;23.00;1.00;;;;;;4994751;28;20205;-75
2023/07/19 06:55:01;;;;;;;12.27;7.80;;;23.10;1.00;;;;;;5021381;28;20269;-74
2023/07/19 06:57:27;;;;;;;13.00;8.13;;;23.20;1.00;;;;;;5008624;28;20205;-75
2023/07/19 06:59:52;;;;;;;10.73;7.43;;;23.20;1.00;;;;;;5010936;28;20201;-75
2023/07/19 07:02:20;;;;;;;11.07;7.00;;;23.30;1.00;;;;;;5009031;28;20872;-74
2023/07/19 07:04:46;;;;;;;11.87;7.73;;;23.50;1.00;;;;;;5010088;28;20205;-75
2023/07/19 07:07:15;;;;;;;9.07;6.47;;;23.60;1.00;;;;;;5011314;28;20421;-74
2023/07/19 07:09:43;;;;;;;11.97;7.13;;;23.60;1.00;;;;;;4991220;28;20272;-73
2023/07/19 07:12:10;;;;;;;15.83;7.57;;;23.90;1.00;;;;;;5006241;28;20464;-75
2023/07/19 07:14:37;;;;;;;11.03;7.00;;;23.90;1.00;;;;;;5005988;28;20424;-75
2023/07/19 07:17:02;;;;;;;16.10;7.30;;;24.10;1.00;;;;;;5005910;28;20494;-74
2023/07/19 07:19:28;;;;;;;9.67;6.70;;;24.20;1.00;;;;;;5004232;28;20935;-75
2023/07/19 07:21:54;;;;;;;11.37;7.27;;;24.40;1.00;;;;;;5007798;28;20595;-75
2023/07/19 07:24:19;;;;;;;9.80;7.20;;;24.40;1.00;;;;;;5010134;28;20672;-76
2023/07/19 07:26:45;;;;;;;9.60;7.23;;;24.40;1.00;;;;;;5012531;28;20239;-75
2023/07/19 07:29:10;;;;;;;10.33;6.80;;;24.50;1.00;;;;;;5010353;28;20181;-75
2023/07/19 07:31:36;;;;;;;11.47;7.40;;;24.70;1.00;;;;;;5005122;28;20572;-75
2023/07/19 07:34:01;;;;;;;10.37;6.27;;;24.70;1.00;;;;;;5008928;28;20591;-75
2023/07/19 07:36:27;;;;;;;8.57;6.50;;;24.90;1.00;;;;;;5010892;28;20193;-75
2023/07/19 07:38:52;;;;;;;8.57;6.60;;;25.00;1.00;;;;;;5009277;28;20178;-75
2023/07/19 07:41:18;;;;;;;11.60;6.47;;;25.20;1.00;;;;;;5009138;28;20695;-77
2023/07/19 07:43:44;;;;;;;10.80;5.80;;;;;;;;;;5010142;28;20694;-75
2023/07/19 07:46:09;;;;;;;9.10;6.07;;;25.40;1.00;;;;;;5009891;28;20660;-75
2023/07/19 07:48:35;;;;;;;9.93;5.80;;;25.80;1.00;;;;;;5010798;28;20182;-75
2023/07/19 07:51:00;;;;;;;9.90;6.17;;;26.10;1.00;;;;;;5009819;28;20640;-76
2023/07/19 07:53:26;;;;;;;9.23;6.20;;;26.30;1.00;;;;;;5009857;28;21000;-75
2023/07/19 07:55:52;;;;;;;9.00;5.27;;;26.50;1.00;;;;;;5007728;28;20253;-76
2023/07/19 07:58:17;;;;;;;8.27;6.17;;;26.80;1.00;;;;;;5005873;28;20707;-76
2023/07/19 08:00:44;;;;;;;8.97;5.87;;;27.00;1.00;;;;;;5007172;28;20556;-76
2023/07/19 08:03:09;;;;;;;8.60;5.20;;;27.00;1.00;;;;;;5008243;28;20206;-76
2023/07/19 08:05:35;;;;;;;9.03;5.73;;;26.90;1.00;;;;;;5005406;28;20459;-76
2023/07/19 08:08:03;;;;;;;6.33;5.27;;;27.20;1.00;;;;;;5009932;28;20185;-76
2023/07/19 08:10:29;;;;;;;12.80;5.40;;;27.20;1.00;;;;;;5007778;28;20449;-77
2023/07/19 08:12:55;;;;;;;11.00;5.73;;;27.40;1.00;;;;;;5009768;28;20550;-76
2023/07/19 08:15:21;;;;;;;8.07;5.70;;;27.60;1.00;;;;;;5010651;28;20182;-76
2023/07/19 08:17:46;;;;;;;11.40;5.70;;;27.70;1.00;;;;;;5008482;28;20185;-76
2023/07/19 08:20:12;;;;;;;12.33;5.20;;;27.90;1.00;;;;;;5010112;28;20588;-77
2023/07/19 08:22:38;;;;;;;12.60;5.50;;;27.80;1.00;;;;;;5008677;28;20218;-76
2023/07/19 08:25:05;;;;;;;10.20;5.87;;;27.60;1.00;;;;;;5008837;28;20269;-75
2023/07/19 08:27:32;;;;;;;8.00;5.10;;;27.90;1.00;;;;;;5009923;28;20571;-76
2023/07/19 08:29:59;;;;;;;7.33;4.70;;;28.30;1.00;;;;;;5008993;28;20236;-76
2023/07/19 08:32:24;;;;;;;8.87;4.60;;;28.40;1.00;;;;;;5009982;28;20212;-76
2023/07/19 08:34:50;;;;;;;8.77;4.70;;;28.50;1.00;;;;;;5009401;28;20178;-76
2023/07/19 08:37:15;;;;;;;9.13;4.37;;;28.70;1.00;;;;;;5013654;28;20182;-76
2023/07/19 08:39:41;;;;;;;9.40;4.27;;;;;;;;;;5012243;28;20660;-74
2023/07/19 08:42:07;;;;;;;13.67;4.80;;;29.50;1.00;;;;;;5014326;28;20201;-76
2023/07/19 08:44:33;;;;;;;8.90;4.90;;;29.80;1.00;;;;;;5012600;28;20553;-78
2023/07/19 08:46:58;;;;;;;8.90;4.43;;;30.10;1.00;;;;;;5013042;28;20197;-76
2023/07/19 08:49:24;;;;;;;8.07;5.30;;;30.50;1.00;;;;;;5014162;28;20197;-77
2023/07/19 08:51:50;;;;;;;6.68;4.03;;;30.80;1.00;;;;;;5013212;28;20750;-75
2023/07/19 08:54:16;;;;;;;7.43;5.00;;;31.20;1.00;;;;;;5012169;28;20572;-75
2023/07/19 08:56:42;;;;;;;8.70;4.57;;;31.50;1.00;;;;;;5013941;28;20361;-76
2023/07/19 08:59:08;;;;;;;8.95;4.65;;;31.70;1.00;;;;;;5012666;28;20209;-76
2023/07/19 09:01:34;;;;;;;7.72;4.70;;;31.70;1.00;;;;;;5013968;28;20273;-76
2023/07/19 09:04:06;;;;;;;6.03;4.03;;;31.60;1.00;;;;;;5012915;28;20196;-77
2023/07/19 09:06:32;;;;;;;7.05;4.50;;;32.40;1.00;;;;;;5012281;28;20560;-78
2023/07/19 09:08:58;;;;;;;9.07;3.75;;;33.40;1.00;;;;;;5013035;28;20184;-75
2023/07/19 09:11:23;;;;;;;7.18;4.53;;;35.50;1.00;;;;;;5010562;28;20186;-77
2023/07/19 09:13:53;;;;;;;5.90;3.78;;;35.60;1.00;;;;;;5067639;23;20696;-74
2023/07/19 09:16:31;;;;;;;7.07;3.45;;;36.00;1.00;;;;;;5005340;28;20177;-74
2023/07/19 09:18:58;;;;;;;7.38;3.47;;;37.00;1.00;;;;;;5012885;28;20657;-74
2023/07/19 09:21:34;;;;;;;4.85;3.30;;;37.60;1.00;;;;;;5011830;28;20568;-74
2023/07/19 09:24:06;;;;;;;6.78;3.03;;;37.60;1.00;;;;;;5013053;28;20206;-75
2023/07/19 09:26:53;;;;;;;6.30;2.85;;;37.70;1.00;;;;;;5012179;28;20188;-74
2023/07/19 09:29:20;;;;;;;7.22;3.25;;;38.20;1.00;;;;;;5011237;28;20174;-75
2023/07/19 09:31:53;;;;;;;6.72;3.53;;;38.80;1.00;;;;;;5010931;28;20202;-74
2023/07/19 09:34:20;;;;;;;6.53;3.85;;;39.30;1.00;;;;;;5006141;28;20193;-74
2023/07/19 09:36:46;;;;;;;5.55;2.50;;;39.60;1.00;;;;;;5012756;28;20188;-74
2023/07/19 09:39:12;;;;;;;5.65;2.92;;;39.90;1.00;;;;;;5010294;28;20178;-74
2023/07/19 09:41:38;;;;;;;4.78;2.78;;;40.10;1.00;;;;;;5014475;28;20186;-74
2023/07/19 09:44:09;;;;;;;5.47;2.55;;;40.70;1.00;;;;;;5011394;28;20726;-76
2023/07/19 09:46:36;;;;;;;4.40;2.70;;;41.30;1.00;;;;;;5006938;28;20197;-74
2023/07/19 09:49:02;;;;;;;8.52;2.80;;;41.40;1.00;;;;;;5012225;28;20193;-75
2023/07/19 09:51:31;;;;;;;5.30;2.78;;;41.20;1.00;;;;;;5000595;28;20205;-74
2023/07/19 09:54:00;;;;;;;5.53;2.58;;;41.10;1.00;;;;;;5008432;28;20201;-74
2023/07/19 09:56:26;;;;;;;7.28;2.85;;;41.00;1.00;;;;;;5011837;28;20639;-74
2023/07/19 09:58:52;;;;;;;4.57;2.60;;;40.70;1.00;;;;;;5007925;28;20182;-73
2023/07/19 10:01:18;;;;;;;5.07;2.50;;;40.70;1.00;;;;;;5009870;28;20345;-77
2023/07/19 10:03:44;;;;;;;4.63;2.55;;;41.00;1.00;;;;;;5010962;28;20209;-77
2023/07/19 10:06:09;;;;;;;8.68;2.60;;;40.80;1.00;;;;;;4997419;28;20190;-76
2023/07/19 10:08:35;;;;;;;3.25;2.38;;;;;;;;;;4997936;28;20196;-74
2023/07/19 10:11:01;;;;;;;5.55;2.65;;;40.10;1.00;;;;;;5004244;28;20263;-75
2023/07/19 10:13:31;;;;;;;5.22;2.22;;;39.60;1.00;;;;;;5003109;28;20226;-74
2023/07/19 10:15:57;;;;;;;3.67;2.60;;;38.50;1.00;;;;;;5004976;28;20189;-75
2023/07/19 10:18:22;;;;;;;5.40;2.80;;;37.50;1.00;;;;;;5003117;28;20177;-72
2023/07/19 10:21:02;;;;;;;7.57;2.38;;;36.30;1.00;;;;;;5006907;28;20188;-71
2023/07/19 10:23:30;;;;;;;6.40;2.38;;;35.50;1.00;;;;;;5006090;28;20718;-75
2023/07/19 10:25:56;;;;;;;4.32;2.58;;;35.50;1.00;;;;;;5007353;28;20260;-73
2023/07/19 10:28:32;;;;;;;4.93;2.42;;;35.90;1.00;;;;;;5006992;28;20220;-75
2023/07/19 10:31:06;;;;;;;4.60;2.53;;;35.80;1.00;;;;;;5008777;28;20297;-75
2023/07/19 10:33:33;;;;;;;5.50;2.67;;;35.30;1.00;;;;;;5007325;28;20209;-72
2023/07/19 10:36:05;;;;;;;5.32;2.42;;;35.20;1.00;;;;;;5002626;28;20182;-73
2023/07/19 10:38:31;;;;;;;7.30;2.72;;;34.90;1.00;;;;;;5007362;28;20182;-73
2023/07/19 10:40:58;;;;;;;6.55;2.47;;;34.90;1.00;;;;;;5004861;28;20186;-74
2023/07/19 10:43:25;;;;;;;7.88;2.97;;;34.90;1.00;;;;;;4999714;28;20217;-74
2023/07/19 10:45:52;;;;;;;9.48;2.92;;;34.50;1.00;;;;;;5003728;28;20241;-76
2023/07/19 10:48:19;;;;;;;4.60;2.83;;;33.80;1.00;;;;;;5008560;28;20181;-74
2023/07/19 10:50:45;;;;;;;6.95;2.63;;;33.60;1.00;;;;;;5005077;28;20185;-75
2023/07/19 10:53:11;;;;;;;5.35;2.97;;;33.70;1.00;;;;;;5008073;28;20517;-72
2023/07/19 10:55:36;;;;;;;5.10;2.92;;;33.70;1.00;;;;;;5012324;28;20181;-74
2023/07/19 10:58:02;;;;;;;6.55;3.33;;;34.10;1.00;;;;;;5006330;28;20189;-71
2023/07/19 11:00:27;;;;;;;8.05;2.95;;;34.00;1.00;;;;;;5008943;28;20274;-74
2023/07/19 11:02:54;;;;;;;8.07;3.40;;;33.50;1.00;;;;;;5007939;28;20209;-76
2023/07/19 11:05:19;;;;;;;7.00;2.92;;;33.40;1.00;;;;;;5007058;28;20298;-75
2023/07/19 11:07:47;;;;;;;4.88;3.08;;;33.40;1.00;;;;;;5006465;28;20268;-78
2023/07/19 11:10:13;;;;;;;6.07;3.15;;;33.00;1.00;;;;;;5007709;28;20193;-75
2023/07/19 11:12:39;;;;;;;7.20;3.67;;;32.40;1.00;;;;;;5008021;28;20206;-74
2023/07/19 11:15:07;;;;;;;8.43;3.45;;;32.30;1.00;;;;;;5005595;28;20185;-72
2023/07/19 11:17:35;;;;;;;11.55;3.20;;;31.90;1.00;;;;;;5008740;28;20588;-75
2023/07/19 11:20:00;;;;;;;8.05;3.00;;;31.50;1.00;;;;;;5006533;28;21356;-74
2023/07/19 11:22:27;;;;;;;7.57;2.78;;;;;;;;;;5005418;28;20201;-74
2023/07/19 11:24:54;;;;;;;7.05;3.08;;;31.30;1.00;;;;;;5006516;28;20258;-74
2023/07/19 11:27:34;;;;;;;5.88;3.40;;;31.50;1.00;;;;;;5008173;28;20676;-74
2023/07/19 11:29:59;;;;;;;6.75;3.22;;;31.80;1.00;;;;;;5004533;28;20273;-72
2023/07/19 11:32:25;;;;;;;6.60;3.40;;;32.10;1.00;;;;;;5006114;28;20214;-74
2023/07/19 11:34:55;;;;;;;6.43;3.08;;;31.90;1.00;;;;;;5008128;28;20233;-74
2023/07/19 11:37:24;;;;;;;7.22;3.20;;;32.10;1.00;;;;;;5006021;28;20264;-75
2023/07/19 11:39:51;;;;;;;4.72;2.95;;;32.40;1.00;;;;;;5008900;28;20174;-74
2023/07/19 11:42:57;;;;;;;7.20;3.30;;;32.70;1.00;;;;;;5007187;28;20715;-74
2023/07/19 11:45:27;;;;;;;6.75;3.40;;;32.60;1.00;;;;;;5006440;28;20672;-77
2023/07/19 11:48:01;;;;;;;8.13;3.20;;;33.20;1.00;;;;;;5004860;28;20272;-75
2023/07/19 11:50:26;;;;;;;5.13;3.05;;;33.00;1.00;;;;;;5007539;28;20189;-74
2023/07/19 11:53:01;;;;;;;11.93;3.92;;;31.40;1.00;;;;;;5006467;28;20213;-72
2023/07/19 11:55:29;;;;;;;13.13;3.35;;;31.20;1.00;;;;;;5003717;28;20185;-74
2023/07/19 11:58:02;;;;;;;5.75;3.00;;;30.30;1.00;;;;;;5005509;28;20197;-73
2023/07/19 12:00:28;;;;;;;6.75;3.40;;;29.60;1.00;;;;;;5005521;28;20280;-75
2023/07/19 12:02:53;;;;;;;6.43;3.53;;;28.90;1.00;;;;;;5003975;28;20202;-75
2023/07/19 12:05:21;;;;;;;8.77;3.58;;;28.90;1.00;;;;;;5005321;28;20201;-74
2023/07/19 12:07:50;;;;;;;8.07;3.60;;;28.90;1.00;;;;;;5010590;28;20652;-73
2023/07/19 12:10:16;;;;;;;9.73;4.20;;;28.80;1.00;;;;;;5005403;28;20260;-73
2023/07/19 12:12:41;;;;;;;6.60;3.93;;;28.20;1.00;;;;;;5006924;28;20201;-73
2023/07/19 12:15:09;;;;;;;8.60;4.03;;;28.10;1.00;;;;;;5006853;28;20194;-74
2023/07/19 12:17:36;;;;;;;11.00;3.57;;;27.90;1.00;;;;;;5004761;28;20248;-73
2023/07/19 12:20:06;;;;;;;10.40;3.70;;;27.80;1.00;;;;;;5007369;28;20186;-73
2023/07/19 12:22:32;;;;;;;6.07;3.90;;;27.80;1.00;;;;;;5011163;28;20190;-74
2023/07/19 12:24:58;;;;;;;7.47;3.80;;;27.80;1.00;;;;;;5008478;28;20170;-75
2023/07/19 12:27:24;;;;;;;9.07;3.60;;;27.60;1.00;;;;;;5004062;28;20188;-74
2023/07/19 12:29:50;;;;;;;11.30;4.47;;;27.70;1.00;;;;;;5006242;28;20252;-75
2023/07/19 12:32:16;;;;;;;8.17;3.90;;;27.80;1.00;;;;;;5005769;28;20232;-74
2023/07/19 12:34:43;;;;;;;7.07;3.60;;;27.90;1.00;;;;;;5006761;28;20205;-72
2023/07/19 12:37:09;;;;;;;7.63;4.30;;;27.80;1.00;;;;;;5006833;28;20611;-75
2023/07/19 12:39:36;;;;;;;8.60;4.30;;;27.50;1.00;;;;;;5006105;28;20182;-74
2023/07/19 12:42:02;;;;;;;7.83;3.90;;;27.50;1.00;;;;;;5005312;28;20200;-78
2023/07/19 12:44:28;;;;;;;10.13;4.50;;;;;;;;;;5006363;28;20198;-77
2023/07/19 12:46:53;;;;;;;6.43;4.23;;;26.90;1.00;;;;;;5005103;28;20239;-79
2023/07/19 12:49:22;;;;;;;8.70;4.33;;;26.80;1.00;;;;;;5003989;28;20285;-75
2023/07/19 12:51:48;;;;;;;8.40;5.30;;;26.90;1.00;;;;;;5006718;28;20384;-74